sensor_id;sensor_type;location;lat;lon;timestamp;P1;durP1;ratioP1;P2;durP2;ratioP2
10120;SDS011;5100;45.176;5.714;2023-07-13T00:01:50;4.47;;;2.72;;
10120;SDS011;5100;45.176;5.714;2023-07-13T00:04:18;3.37;;;2.70;;
10120;SDS011;5100;45.176;5.714;2023-07-13T00:06:46;2.65;;;2.45;;
10120;SDS011;5100;45.176;5.714;2023-07-13T00:09:13;3.87;;;2.50;;
10120;SDS011;5100;45.176;5.714;2023-07-13T00:11:41;2.72;;;2.42;;
10120;SDS011;5100;45.176;5.714;2023-07-13T00:14:07;3.70;;;2.62;;
10120;SDS011;5100;45.176;5.714;2023-07-13T00:16:35;4.65;;;2.20;;
10120;SDS011;5100;45.176;5.714;2023-07-13T00:19:02;2.67;;;2.22;;
10120;SDS011;5100;45.176;5.714;2023-07-13T00:21:29;3.85;;;2.75;;
10120;SDS011;5100;45.176;5.714;2023-07-13T00:23:54;2.17;;;1.98;;
10120;SDS011;5100;45.176;5.714;2023-07-13T00:26:21;3.15;;;2.17;;
10120;SDS011;5100;45.176;5.714;2023-07-13T00:28:47;2.42;;;2.22;;
10120;SDS011;5100;45.176;5.714;2023-07-13T00:31:13;2.30;;;1.92;;
10120;SDS011;5100;45.176;5.714;2023-07-13T00:33:40;2.42;;;2.22;;
10120;SDS011;5100;45.176;5.714;2023-07-13T00:36:07;2.17;;;1.98;;
10120;SDS011;5100;45.176;5.714;2023-07-13T00:38:34;2.78;;;1.95;;
10120;SDS011;5100;45.176;5.714;2023-07-13T00:41:02;2.90;;;2.17;;
10120;SDS011;5100;45.176;5.714;2023-07-13T00:43:29;2.37;;;2.17;;
10120;SDS011;5100;45.176;5.714;2023-07-13T00:48:24;2.58;;;2.05;;
10120;SDS011;5100;45.176;5.714;2023-07-13T00:50:55;1.80;;;1.70;;
10120;SDS011;5100;45.176;5.714;2023-07-13T00:53:24;2.58;;;2.33;;
10120;SDS011;5100;45.176;5.714;2023-07-13T00:55:52;3.30;;;2.30;;
10120;SDS011;5100;45.176;5.714;2023-07-13T00:58:21;3.33;;;2.05;;
10120;SDS011;5100;45.176;5.714;2023-07-13T01:00:48;2.05;;;1.85;;
10120;SDS011;5100;45.176;5.714;2023-07-13T01:03:17;1.80;;;1.70;;
10120;SDS011;5100;45.176;5.714;2023-07-13T01:05:44;1.58;;;1.48;;
10120;SDS011;5100;45.176;5.714;2023-07-13T01:08:13;2.30;;;1.87;;
10120;SDS011;5100;45.176;5.714;2023-07-13T01:10:39;7.28;;;2.22;;
10120;SDS011;5100;45.176;5.714;2023-07-13T01:13:06;2.60;;;2.00;;
10120;SDS011;5100;45.176;5.714;2023-07-13T01:15:39;2.12;;;1.67;;
10120;SDS011;5100;45.176;5.714;2023-07-13T01:18:12;1.65;;;1.55;;
10120;SDS011;5100;45.176;5.714;2023-07-13T01:20:50;1.87;;;1.77;;
10120;SDS011;5100;45.176;5.714;2023-07-13T01:23:22;1.83;;;1.73;;
10120;SDS011;5100;45.176;5.714;2023-07-13T01:25:50;6.07;;;2.00;;
10120;SDS011;5100;45.176;5.714;2023-07-13T01:28:17;2.47;;;1.77;;
10120;SDS011;5100;45.176;5.714;2023-07-13T01:30:44;2.60;;;1.67;;
10120;SDS011;5100;45.176;5.714;2023-07-13T01:33:15;2.20;;;2.00;;
10120;SDS011;5100;45.176;5.714;2023-07-13T01:35:42;2.20;;;1.92;;
10120;SDS011;5100;45.176;5.714;2023-07-13T01:38:10;2.17;;;1.50;;
10120;SDS011;5100;45.176;5.714;2023-07-13T01:40:37;2.53;;;2.10;;
10120;SDS011;5100;45.176;5.714;2023-07-13T01:43:03;2.87;;;1.98;;
10120;SDS011;5100;45.176;5.714;2023-07-13T01:45:30;3.80;;;1.83;;
10120;SDS011;5100;45.176;5.714;2023-07-13T01:47:56;2.60;;;1.62;;
10120;SDS011;5100;45.176;5.714;2023-07-13T01:50:23;2.22;;;2.03;;
10120;SDS011;5100;45.176;5.714;2023-07-13T01:52:51;1.70;;;1.60;;
10120;SDS011;5100;45.176;5.714;2023-07-13T01:55:18;3.28;;;1.80;;
10120;SDS011;5100;45.176;5.714;2023-07-13T01:57:46;1.67;;;1.55;;
10120;SDS011;5100;45.176;5.714;2023-07-13T02:00:12;1.50;;;1.40;;
10120;SDS011;5100;45.176;5.714;2023-07-13T02:02:41;2.97;;;1.30;;
10120;SDS011;5100;45.176;5.714;2023-07-13T02:05:08;1.95;;;1.73;;
10120;SDS011;5100;45.176;5.714;2023-07-13T02:07:35;2.08;;;1.67;;
10120;SDS011;5100;45.176;5.714;2023-07-13T02:10:02;1.40;;;1.30;;
10120;SDS011;5100;45.176;5.714;2023-07-13T02:12:29;4.47;;;1.60;;
10120;SDS011;5100;45.176;5.714;2023-07-13T02:14:56;2.25;;;1.40;;
10120;SDS011;5100;45.176;5.714;2023-07-13T02:17:22;2.90;;;1.55;;
10120;SDS011;5100;45.176;5.714;2023-07-13T02:19:47;1.52;;;1.42;;
10120;SDS011;5100;45.176;5.714;2023-07-13T02:22:14;1.37;;;1.27;;
10120;SDS011;5100;45.176;5.714;2023-07-13T02:24:40;2.92;;;1.60;;
10120;SDS011;5100;45.176;5.714;2023-07-13T02:27:06;2.37;;;1.50;;
10120;SDS011;5100;45.176;5.714;2023-07-13T02:29:32;1.50;;;1.40;;
10120;SDS011;5100;45.176;5.714;2023-07-13T02:31:58;1.60;;;1.50;;
10120;SDS011;5100;45.176;5.714;2023-07-13T02:34:24;1.75;;;1.45;;
10120;SDS011;5100;45.176;5.714;2023-07-13T02:36:51;2.25;;;1.52;;
10120;SDS011;5100;45.176;5.714;2023-07-13T02:39:17;1.70;;;1.60;;
10120;SDS011;5100;45.176;5.714;2023-07-13T02:41:43;2.75;;;1.40;;
10120;SDS011;5100;45.176;5.714;2023-07-13T02:44:09;1.20;;;1.20;;
10120;SDS011;5100;45.176;5.714;2023-07-13T02:46:37;5.32;;;1.85;;
10120;SDS011;5100;45.176;5.714;2023-07-13T02:49:03;1.50;;;1.40;;
10120;SDS011;5100;45.176;5.714;2023-07-13T02:51:30;1.30;;;1.20;;
10120;SDS011;5100;45.176;5.714;2023-07-13T02:54:03;2.05;;;1.50;;
10120;SDS011;5100;45.176;5.714;2023-07-13T02:56:31;1.55;;;1.25;;
10120;SDS011;5100;45.176;5.714;2023-07-13T02:58:58;1.55;;;1.42;;
10120;SDS011;5100;45.176;5.714;2023-07-13T03:01:24;1.02;;;1.02;;
10120;SDS011;5100;45.176;5.714;2023-07-13T03:03:51;5.75;;;1.75;;
10120;SDS011;5100;45.176;5.714;2023-07-13T03:06:18;1.30;;;1.20;;
10120;SDS011;5100;45.176;5.714;2023-07-13T03:08:47;1.30;;;1.20;;
10120;SDS011;5100;45.176;5.714;2023-07-13T03:11:15;1.20;;;1.20;;
10120;SDS011;5100;45.176;5.714;2023-07-13T03:13:45;1.40;;;1.30;;
10120;SDS011;5100;45.176;5.714;2023-07-13T03:16:12;2.17;;;1.60;;
10120;SDS011;5100;45.176;5.714;2023-07-13T03:18:40;1.98;;;1.45;;
10120;SDS011;5100;45.176;5.714;2023-07-13T03:21:07;1.30;;;1.20;;
10120;SDS011;5100;45.176;5.714;2023-07-13T03:23:33;7.22;;;1.40;;
10120;SDS011;5100;45.176;5.714;2023-07-13T03:26:22;2.10;;;1.00;;
10120;SDS011;5100;45.176;5.714;2023-07-13T03:28:47;1.70;;;1.60;;
10120;SDS011;5100;45.176;5.714;2023-07-13T03:31:16;1.77;;;1.27;;
10120;SDS011;5100;45.176;5.714;2023-07-13T03:33:48;2.12;;;1.30;;
10120;SDS011;5100;45.176;5.714;2023-07-13T03:36:18;1.30;;;1.20;;
10120;SDS011;5100;45.176;5.714;2023-07-13T03:38:49;1.40;;;1.30;;
10120;SDS011;5100;45.176;5.714;2023-07-13T03:41:17;1.00;;;0.95;;
10120;SDS011;5100;45.176;5.714;2023-07-13T03:43:44;2.70;;;1.40;;
10120;SDS011;5100;45.176;5.714;2023-07-13T03:46:10;1.87;;;1.48;;
10120;SDS011;5100;45.176;5.714;2023-07-13T03:48:37;1.50;;;1.40;;
10120;SDS011;5100;45.176;5.714;2023-07-13T03:51:05;1.58;;;1.48;;
10120;SDS011;5100;45.176;5.714;2023-07-13T03:53:31;1.20;;;1.10;;
10120;SDS011;5100;45.176;5.714;2023-07-13T03:55:57;7.10;;;1.58;;
10120;SDS011;5100;45.176;5.714;2023-07-13T03:58:31;1.40;;;1.30;;
10120;SDS011;5100;45.176;5.714;2023-07-13T04:01:04;2.03;;;1.30;;
10120;SDS011;5100;45.176;5.714;2023-07-13T04:03:33;2.62;;;1.30;;
10120;SDS011;5100;45.176;5.714;2023-07-13T04:06:00;1.52;;;1.20;;
10120;SDS011;5100;45.176;5.714;2023-07-13T04:08:28;1.87;;;1.25;;
10120;SDS011;5100;45.176;5.714;2023-07-13T04:10:56;0.98;;;0.93;;
10120;SDS011;5100;45.176;5.714;2023-07-13T04:13:23;2.70;;;1.62;;
10120;SDS011;5100;45.176;5.714;2023-07-13T04:15:49;0.95;;;0.95;;
10120;SDS011;5100;45.176;5.714;2023-07-13T04:18:17;1.00;;;1.00;;
10120;SDS011;5100;45.176;5.714;2023-07-13T04:20:45;0.90;;;0.90;;
10120;SDS011;5100;45.176;5.714;2023-07-13T04:23:12;0.88;;;0.88;;
10120;SDS011;5100;45.176;5.714;2023-07-13T04:25:38;3.37;;;1.23;;
10120;SDS011;5100;45.176;5.714;2023-07-13T04:28:04;2.17;;;1.50;;
10120;SDS011;5100;45.176;5.714;2023-07-13T04:30:31;5.15;;;1.40;;
10120;SDS011;5100;45.176;5.714;2023-07-13T04:32:57;1.33;;;1.23;;
10120;SDS011;5100;45.176;5.714;2023-07-13T04:35:23;1.42;;;1.27;;
10120;SDS011;5100;45.176;5.714;2023-07-13T04:37:49;1.67;;;1.12;;
10120;SDS011;5100;45.176;5.714;2023-07-13T04:40:19;2.40;;;1.17;;
10120;SDS011;5100;45.176;5.714;2023-07-13T04:42:46;2.05;;;1.17;;
10120;SDS011;5100;45.176;5.714;2023-07-13T04:45:13;2.72;;;1.65;;
10120;SDS011;5100;45.176;5.714;2023-07-13T04:47:40;1.02;;;0.80;;
10120;SDS011;5100;45.176;5.714;2023-07-13T04:50:07;2.37;;;1.30;;
10120;SDS011;5100;45.176;5.714;2023-07-13T04:52:34;2.15;;;1.37;;
10120;SDS011;5100;45.176;5.714;2023-07-13T04:55:00;1.48;;;1.20;;
10120;SDS011;5100;45.176;5.714;2023-07-13T04:57:27;2.20;;;1.30;;
10120;SDS011;5100;45.176;5.714;2023-07-13T04:59:53;1.27;;;1.10;;
10120;SDS011;5100;45.176;5.714;2023-07-13T05:02:22;1.12;;;1.00;;
10120;SDS011;5100;45.176;5.714;2023-07-13T05:04:48;1.98;;;1.08;;
10120;SDS011;5100;45.176;5.714;2023-07-13T05:07:15;1.55;;;1.30;;
10120;SDS011;5100;45.176;5.714;2023-07-13T05:09:41;1.73;;;1.00;;
10120;SDS011;5100;45.176;5.714;2023-07-13T05:12:08;4.05;;;1.40;;
10120;SDS011;5100;45.176;5.714;2023-07-13T05:14:35;3.33;;;1.10;;
10120;SDS011;5100;45.176;5.714;2023-07-13T05:17:01;1.55;;;1.08;;
10120;SDS011;5100;45.176;5.714;2023-07-13T05:19:27;1.12;;;1.00;;
10120;SDS011;5100;45.176;5.714;2023-07-13T05:21:53;1.00;;;1.00;;
10120;SDS011;5100;45.176;5.714;2023-07-13T05:24:19;1.33;;;1.23;;
10120;SDS011;5100;45.176;5.714;2023-07-13T05:26:45;0.88;;;0.82;;
10120;SDS011;5100;45.176;5.714;2023-07-13T05:29:11;1.05;;;0.98;;
10120;SDS011;5100;45.176;5.714;2023-07-13T05:31:37;1.27;;;0.88;;
10120;SDS011;5100;45.176;5.714;2023-07-13T05:34:03;1.48;;;1.05;;
10120;SDS011;5100;45.176;5.714;2023-07-13T05:36:30;1.77;;;1.20;;
10120;SDS011;5100;45.176;5.714;2023-07-13T05:38:56;1.40;;;1.00;;
10120;SDS011;5100;45.176;5.714;2023-07-13T05:41:22;4.07;;;1.23;;
10120;SDS011;5100;45.176;5.714;2023-07-13T05:43:48;0.90;;;0.90;;
10120;SDS011;5100;45.176;5.714;2023-07-13T05:46:15;4.40;;;1.12;;
10120;SDS011;5100;45.176;5.714;2023-07-13T05:48:41;2.92;;;1.62;;
10120;SDS011;5100;45.176;5.714;2023-07-13T05:51:07;0.90;;;0.90;;
10120;SDS011;5100;45.176;5.714;2023-07-13T05:53:34;5.95;;;1.40;;
10120;SDS011;5100;45.176;5.714;2023-07-13T05:56:00;2.00;;;1.00;;
10120;SDS011;5100;45.176;5.714;2023-07-13T05:58:26;1.30;;;1.20;;
10120;SDS011;5100;45.176;5.714;2023-07-13T06:00:59;1.00;;;1.00;;
10120;SDS011;5100;45.176;5.714;2023-07-13T06:03:28;1.33;;;1.00;;
10120;SDS011;5100;45.176;5.714;2023-07-13T06:05:54;1.00;;;0.90;;
10120;SDS011;5100;45.176;5.714;2023-07-13T06:08:20;1.12;;;1.10;;
10120;SDS011;5100;45.176;5.714;2023-07-13T06:10:47;1.55;;;1.23;;
10120;SDS011;5100;45.176;5.714;2023-07-13T06:13:13;1.27;;;1.17;;
10120;SDS011;5100;45.176;5.714;2023-07-13T06:15:38;1.98;;;1.37;;
10120;SDS011;5100;45.176;5.714;2023-07-13T06:18:05;1.00;;;1.00;;
10120;SDS011;5100;45.176;5.714;2023-07-13T06:20:33;1.33;;;0.90;;
10120;SDS011;5100;45.176;5.714;2023-07-13T06:23:00;1.17;;;0.95;;
10120;SDS011;5100;45.176;5.714;2023-07-13T06:25:27;2.20;;;1.20;;
10120;SDS011;5100;45.176;5.714;2023-07-13T06:27:53;2.05;;;1.02;;
10120;SDS011;5100;45.176;5.714;2023-07-13T06:30:19;1.55;;;1.25;;
10120;SDS011;5100;45.176;5.714;2023-07-13T06:32:45;1.00;;;1.00;;
10120;SDS011;5100;45.176;5.714;2023-07-13T06:35:11;1.75;;;1.20;;
10120;SDS011;5100;45.176;5.714;2023-07-13T06:37:38;0.90;;;0.90;;
10120;SDS011;5100;45.176;5.714;2023-07-13T06:40:05;1.42;;;1.05;;
10120;SDS011;5100;45.176;5.714;2023-07-13T06:42:31;1.65;;;1.10;;
10120;SDS011;5100;45.176;5.714;2023-07-13T06:44:57;1.52;;;1.10;;
10120;SDS011;5100;45.176;5.714;2023-07-13T06:47:24;1.55;;;0.90;;
10120;SDS011;5100;45.176;5.714;2023-07-13T06:49:50;0.95;;;0.95;;
10120;SDS011;5100;45.176;5.714;2023-07-13T06:52:16;1.02;;;0.90;;
10120;SDS011;5100;45.176;5.714;2023-07-13T06:54:42;1.90;;;1.20;;
10120;SDS011;5100;45.176;5.714;2023-07-13T06:57:08;1.05;;;1.02;;
10120;SDS011;5100;45.176;5.714;2023-07-13T06:59:34;1.00;;;0.90;;
10120;SDS011;5100;45.176;5.714;2023-07-13T07:02:00;1.27;;;1.02;;
10120;SDS011;5100;45.176;5.714;2023-07-13T07:04:26;1.00;;;0.93;;
10120;SDS011;5100;45.176;5.714;2023-07-13T07:06:52;0.70;;;0.70;;
10120;SDS011;5100;45.176;5.714;2023-07-13T07:09:18;1.30;;;1.20;;
10120;SDS011;5100;45.176;5.714;2023-07-13T07:11:44;0.90;;;0.90;;
10120;SDS011;5100;45.176;5.714;2023-07-13T07:14:10;1.20;;;1.08;;
10120;SDS011;5100;45.176;5.714;2023-07-13T07:16:37;1.15;;;1.10;;
10120;SDS011;5100;45.176;5.714;2023-07-13T07:19:03;4.47;;;1.15;;
10120;SDS011;5100;45.176;5.714;2023-07-13T07:21:28;1.23;;;1.12;;
10120;SDS011;5100;45.176;5.714;2023-07-13T07:23:55;1.90;;;1.20;;
10120;SDS011;5100;45.176;5.714;2023-07-13T07:26:21;1.12;;;0.93;;
10120;SDS011;5100;45.176;5.714;2023-07-13T07:28:47;1.23;;;0.93;;
10120;SDS011;5100;45.176;5.714;2023-07-13T07:31:13;0.82;;;0.82;;
10120;SDS011;5100;45.176;5.714;2023-07-13T07:33:39;1.20;;;1.10;;
10120;SDS011;5100;45.176;5.714;2023-07-13T07:36:05;1.23;;;1.00;;
10120;SDS011;5100;45.176;5.714;2023-07-13T07:38:32;1.95;;;1.12;;
10120;SDS011;5100;45.176;5.714;2023-07-13T07:40:58;1.00;;;1.00;;
10120;SDS011;5100;45.176;5.714;2023-07-13T07:43:26;1.15;;;1.05;;
10120;SDS011;5100;45.176;5.714;2023-07-13T07:45:52;1.65;;;1.00;;
10120;SDS011;5100;45.176;5.714;2023-07-13T07:48:18;2.12;;;1.50;;
10120;SDS011;5100;45.176;5.714;2023-07-13T07:50:44;0.80;;;0.80;;
10120;SDS011;5100;45.176;5.714;2023-07-13T07:53:10;3.65;;;1.40;;
10120;SDS011;5100;45.176;5.714;2023-07-13T07:55:36;1.52;;;1.12;;
10120;SDS011;5100;45.176;5.714;2023-07-13T07:58:02;1.33;;;1.23;;
10120;SDS011;5100;45.176;5.714;2023-07-13T08:00:28;1.15;;;1.05;;
10120;SDS011;5100;45.176;5.714;2023-07-13T08:02:57;1.10;;;1.10;;
10120;SDS011;5100;45.176;5.714;2023-07-13T08:05:23;1.15;;;0.90;;
10120;SDS011;5100;45.176;5.714;2023-07-13T08:07:50;1.33;;;1.20;;
10120;SDS011;5100;45.176;5.714;2023-07-13T08:10:16;1.15;;;1.05;;
10120;SDS011;5100;45.176;5.714;2023-07-13T08:12:42;1.08;;;1.02;;
10120;SDS011;5100;45.176;5.714;2023-07-13T08:15:09;2.33;;;1.27;;
10120;SDS011;5100;45.176;5.714;2023-07-13T08:17:38;2.40;;;1.30;;
10120;SDS011;5100;45.176;5.714;2023-07-13T08:20:04;1.30;;;1.20;;
10120;SDS011;5100;45.176;5.714;2023-07-13T08:22:30;2.40;;;1.20;;
10120;SDS011;5100;45.176;5.714;2023-07-13T08:24:58;1.70;;;1.35;;
10120;SDS011;5100;45.176;5.714;2023-07-13T08:27:26;1.23;;;1.10;;
10120;SDS011;5100;45.176;5.714;2023-07-13T08:29:53;1.10;;;1.00;;
10120;SDS011;5100;45.176;5.714;2023-07-13T08:32:20;0.95;;;0.95;;
10120;SDS011;5100;45.176;5.714;2023-07-13T08:34:48;2.92;;;1.20;;
10120;SDS011;5100;45.176;5.714;2023-07-13T08:37:14;3.10;;;0.95;;
10120;SDS011;5100;45.176;5.714;2023-07-13T08:39:43;1.30;;;1.20;;
10120;SDS011;5100;45.176;5.714;2023-07-13T08:45:19;1.20;;;1.10;;
10120;SDS011;5100;45.176;5.714;2023-07-13T08:47:50;1.37;;;1.10;;
10120;SDS011;5100;45.176;5.714;2023-07-13T08:50:27;1.23;;;1.10;;
10120;SDS011;5100;45.176;5.714;2023-07-13T08:52:59;1.35;;;1.25;;
10120;SDS011;5100;45.176;5.714;2023-07-13T08:55:31;1.00;;;1.00;;
10120;SDS011;5100;45.176;5.714;2023-07-13T08:58:05;1.08;;;1.00;;
10120;SDS011;5100;45.176;5.714;2023-07-13T09:00:43;1.23;;;1.12;;
10120;SDS011;5100;45.176;5.714;2023-07-13T09:03:12;1.73;;;1.35;;
10120;SDS011;5100;45.176;5.714;2023-07-13T09:05:47;1.30;;;1.20;;
10120;SDS011;5100;45.176;5.714;2023-07-13T09:10:53;1.42;;;1.30;;
10120;SDS011;5100;45.176;5.714;2023-07-13T09:13:33;1.95;;;1.35;;
10120;SDS011;5100;45.176;5.714;2023-07-13T09:16:07;1.10;;;1.10;;
10120;SDS011;5100;45.176;5.714;2023-07-13T09:18:40;2.75;;;1.35;;
10120;SDS011;5100;45.176;5.714;2023-07-13T09:21:13;1.25;;;1.15;;
10120;SDS011;5100;45.176;5.714;2023-07-13T09:23:43;1.52;;;1.20;;
10120;SDS011;5100;45.176;5.714;2023-07-13T09:28:44;3.25;;;2.35;;
10120;SDS011;5100;45.176;5.714;2023-07-13T09:31:20;1.30;;;1.20;;
10120;SDS011;5100;45.176;5.714;2023-07-13T09:33:51;2.85;;;1.33;;
10120;SDS011;5100;45.176;5.714;2023-07-13T09:38:57;1.85;;;1.37;;
10120;SDS011;5100;45.176;5.714;2023-07-13T09:41:39;1.30;;;1.20;;
10120;SDS011;5100;45.176;5.714;2023-07-13T09:44:14;2.08;;;1.42;;
10120;SDS011;5100;45.176;5.714;2023-07-13T09:46:44;1.25;;;1.15;;
10120;SDS011;5100;45.176;5.714;2023-07-13T09:49:12;1.65;;;1.45;;
10120;SDS011;5100;45.176;5.714;2023-07-13T09:51:40;1.50;;;1.40;;
10120;SDS011;5100;45.176;5.714;2023-07-13T09:54:17;1.05;;;1.05;;
10120;SDS011;5100;45.176;5.714;2023-07-13T09:56:45;1.20;;;1.10;;
10120;SDS011;5100;45.176;5.714;2023-07-13T09:59:21;2.15;;;1.62;;
10120;SDS011;5100;45.176;5.714;2023-07-13T10:01:49;1.30;;;1.20;;
10120;SDS011;5100;45.176;5.714;2023-07-13T10:04:19;2.45;;;1.30;;
10120;SDS011;5100;45.176;5.714;2023-07-13T10:06:47;1.42;;;1.17;;
10120;SDS011;5100;45.176;5.714;2023-07-13T10:09:17;1.40;;;1.30;;
10120;SDS011;5100;45.176;5.714;2023-07-13T10:11:44;2.70;;;1.17;;
10120;SDS011;5100;45.176;5.714;2023-07-13T10:14:15;2.20;;;1.25;;
10120;SDS011;5100;45.176;5.714;2023-07-13T10:16:44;1.62;;;1.30;;
10120;SDS011;5100;45.176;5.714;2023-07-13T10:19:19;1.10;;;1.00;;
10120;SDS011;5100;45.176;5.714;2023-07-13T10:21:55;1.20;;;1.10;;
10120;SDS011;5100;45.176;5.714;2023-07-13T10:24:27;3.87;;;1.30;;
10120;SDS011;5100;45.176;5.714;2023-07-13T10:27:33;1.02;;;1.00;;
10120;SDS011;5100;45.176;5.714;2023-07-13T10:30:09;1.35;;;1.25;;
10120;SDS011;5100;45.176;5.714;2023-07-13T10:32:41;1.40;;;1.30;;
10120;SDS011;5100;45.176;5.714;2023-07-13T10:35:09;1.20;;;1.10;;
10120;SDS011;5100;45.176;5.714;2023-07-13T10:37:43;3.20;;;1.48;;
10120;SDS011;5100;45.176;5.714;2023-07-13T10:40:30;2.10;;;1.30;;
10120;SDS011;5100;45.176;5.714;2023-07-13T10:43:09;2.05;;;1.30;;
10120;SDS011;5100;45.176;5.714;2023-07-13T10:45:46;1.35;;;1.23;;
10120;SDS011;5100;45.176;5.714;2023-07-13T10:48:16;1.12;;;1.10;;
10120;SDS011;5100;45.176;5.714;2023-07-13T10:50:44;1.00;;;0.90;;
10120;SDS011;5100;45.176;5.714;2023-07-13T10:53:20;1.17;;;1.10;;
10120;SDS011;5100;45.176;5.714;2023-07-13T11:03:46;1.50;;;1.17;;
10120;SDS011;5100;45.176;5.714;2023-07-13T11:09:00;1.60;;;1.35;;
10120;SDS011;5100;45.176;5.714;2023-07-13T11:11:49;2.20;;;1.20;;
10120;SDS011;5100;45.176;5.714;2023-07-13T11:14:25;1.52;;;1.42;;
10120;SDS011;5100;45.176;5.714;2023-07-13T11:19:53;4.82;;;1.10;;
10120;SDS011;5100;45.176;5.714;2023-07-13T11:22:44;1.15;;;1.05;;
10120;SDS011;5100;45.176;5.714;2023-07-13T11:30:41;2.45;;;1.20;;
10120;SDS011;5100;45.176;5.714;2023-07-13T11:33:15;2.30;;;1.00;;
10120;SDS011;5100;45.176;5.714;2023-07-13T11:38:32;5.12;;;1.10;;
10120;SDS011;5100;45.176;5.714;2023-07-13T11:41:17;1.17;;;1.00;;
10120;SDS011;5100;45.176;5.714;2023-07-13T11:43:45;1.45;;;1.30;;
10120;SDS011;5100;45.176;5.714;2023-07-13T11:46:16;1.08;;;0.90;;
10120;SDS011;5100;45.176;5.714;2023-07-13T11:48:48;1.05;;;1.05;;
10120;SDS011;5100;45.176;5.714;2023-07-13T11:51:19;3.97;;;1.30;;
10120;SDS011;5100;45.176;5.714;2023-07-13T11:53:50;1.65;;;1.20;;
10120;SDS011;5100;45.176;5.714;2023-07-13T11:56:18;1.23;;;1.00;;
10120;SDS011;5100;45.176;5.714;2023-07-13T11:58:48;1.40;;;1.20;;
10120;SDS011;5100;45.176;5.714;2023-07-13T12:01:17;2.28;;;1.00;;
10120;SDS011;5100;45.176;5.714;2023-07-13T12:03:52;2.60;;;1.20;;
10120;SDS011;5100;45.176;5.714;2023-07-13T12:06:27;1.25;;;1.05;;
10120;SDS011;5100;45.176;5.714;2023-07-13T12:09:01;1.20;;;1.10;;
10120;SDS011;5100;45.176;5.714;2023-07-13T12:11:29;1.60;;;1.00;;
10120;SDS011;5100;45.176;5.714;2023-07-13T12:13:56;1.35;;;1.25;;
10120;SDS011;5100;45.176;5.714;2023-07-13T12:16:26;1.50;;;1.17;;
10120;SDS011;5100;45.176;5.714;2023-07-13T12:18:55;1.10;;;1.00;;
10120;SDS011;5100;45.176;5.714;2023-07-13T12:21:36;1.35;;;1.17;;
10120;SDS011;5100;45.176;5.714;2023-07-13T12:24:04;1.17;;;1.00;;
10120;SDS011;5100;45.176;5.714;2023-07-13T12:26:39;1.75;;;1.20;;
10120;SDS011;5100;45.176;5.714;2023-07-13T12:29:05;2.05;;;1.00;;
10120;SDS011;5100;45.176;5.714;2023-07-13T12:31:37;1.05;;;1.05;;
10120;SDS011;5100;45.176;5.714;2023-07-13T12:34:12;1.30;;;1.17;;
10120;SDS011;5100;45.176;5.714;2023-07-13T12:36:40;1.35;;;1.00;;
10120;SDS011;5100;45.176;5.714;2023-07-13T12:39:33;1.75;;;1.33;;
10120;SDS011;5100;45.176;5.714;2023-07-13T12:44:54;1.42;;;1.10;;
10120;SDS011;5100;45.176;5.714;2023-07-13T12:47:20;1.40;;;1.30;;
10120;SDS011;5100;45.176;5.714;2023-07-13T12:49:48;1.05;;;1.00;;
10120;SDS011;5100;45.176;5.714;2023-07-13T12:52:36;2.00;;;1.25;;
10120;SDS011;5100;45.176;5.714;2023-07-13T12:55:12;2.15;;;1.40;;
10120;SDS011;5100;45.176;5.714;2023-07-13T12:57:49;1.58;;;0.82;;
10120;SDS011;5100;45.176;5.714;2023-07-13T13:00:35;11.88;;;1.90;;
10120;SDS011;5100;45.176;5.714;2023-07-13T13:03:16;2.53;;;1.12;;
10120;SDS011;5100;45.176;5.714;2023-07-13T13:08:32;1.17;;;1.00;;
10120;SDS011;5100;45.176;5.714;2023-07-13T13:11:00;1.17;;;1.00;;
10120;SDS011;5100;45.176;5.714;2023-07-13T13:13:26;1.00;;;1.00;;
10120;SDS011;5100;45.176;5.714;2023-07-13T13:15:53;1.05;;;1.00;;
10120;SDS011;5100;45.176;5.714;2023-07-13T13:18:19;4.62;;;1.02;;
10120;SDS011;5100;45.176;5.714;2023-07-13T13:20:47;1.10;;;1.08;;
10120;SDS011;5100;45.176;5.714;2023-07-13T13:23:15;1.60;;;0.93;;
10120;SDS011;5100;45.176;5.714;2023-07-13T13:25:46;1.30;;;1.20;;
10120;SDS011;5100;45.176;5.714;2023-07-13T13:28:15;1.10;;;1.00;;
10120;SDS011;5100;45.176;5.714;2023-07-13T13:30:43;0.98;;;0.98;;
10120;SDS011;5100;45.176;5.714;2023-07-13T13:33:11;1.23;;;1.12;;
10120;SDS011;5100;45.176;5.714;2023-07-13T13:35:40;2.25;;;1.40;;
10120;SDS011;5100;45.176;5.714;2023-07-13T13:38:13;2.92;;;1.30;;
10120;SDS011;5100;45.176;5.714;2023-07-13T13:40:41;1.98;;;1.08;;
10120;SDS011;5100;45.176;5.714;2023-07-13T13:43:13;1.65;;;1.25;;
10120;SDS011;5100;45.176;5.714;2023-07-13T13:45:54;1.17;;;1.02;;
10120;SDS011;5100;45.176;5.714;2023-07-13T13:48:32;4.07;;;1.33;;
10120;SDS011;5100;45.176;5.714;2023-07-13T13:51:01;1.30;;;1.00;;
10120;SDS011;5100;45.176;5.714;2023-07-13T13:53:42;1.30;;;1.20;;
10120;SDS011;5100;45.176;5.714;2023-07-13T13:56:09;3.17;;;1.37;;
10120;SDS011;5100;45.176;5.714;2023-07-13T13:58:35;1.00;;;1.00;;
10120;SDS011;5100;45.176;5.714;2023-07-13T14:01:01;1.55;;;1.40;;
10120;SDS011;5100;45.176;5.714;2023-07-13T14:03:28;0.90;;;0.90;;
10120;SDS011;5100;45.176;5.714;2023-07-13T14:05:54;1.10;;;1.05;;
10120;SDS011;5100;45.176;5.714;2023-07-13T14:08:22;0.90;;;0.90;;
10120;SDS011;5100;45.176;5.714;2023-07-13T14:10:49;1.42;;;1.20;;
10120;SDS011;5100;45.176;5.714;2023-07-13T14:13:24;1.92;;;1.17;;
10120;SDS011;5100;45.176;5.714;2023-07-13T14:15:58;1.23;;;0.90;;
10120;SDS011;5100;45.176;5.714;2023-07-13T14:18:24;0.90;;;0.90;;
10120;SDS011;5100;45.176;5.714;2023-07-13T14:20:50;2.58;;;1.15;;
10120;SDS011;5100;45.176;5.714;2023-07-13T14:23:17;2.33;;;1.23;;
10120;SDS011;5100;45.176;5.714;2023-07-13T14:25:46;1.58;;;1.48;;
10120;SDS011;5100;45.176;5.714;2023-07-13T14:28:20;1.30;;;1.20;;
10120;SDS011;5100;45.176;5.714;2023-07-13T14:30:51;1.48;;;1.02;;
10120;SDS011;5100;45.176;5.714;2023-07-13T14:33:20;2.05;;;1.23;;
10120;SDS011;5100;45.176;5.714;2023-07-13T14:35:46;1.15;;;1.05;;
10120;SDS011;5100;45.176;5.714;2023-07-13T14:38:13;3.37;;;1.10;;
10120;SDS011;5100;45.176;5.714;2023-07-13T14:40:42;1.80;;;1.05;;
10120;SDS011;5100;45.176;5.714;2023-07-13T14:43:15;3.15;;;1.50;;
10120;SDS011;5100;45.176;5.714;2023-07-13T14:45:43;0.90;;;0.90;;
10120;SDS011;5100;45.176;5.714;2023-07-13T14:48:15;1.20;;;1.10;;
10120;SDS011;5100;45.176;5.714;2023-07-13T14:50:45;3.25;;;1.15;;
10120;SDS011;5100;45.176;5.714;2023-07-13T14:53:12;1.85;;;1.27;;
10120;SDS011;5100;45.176;5.714;2023-07-13T14:55:39;1.20;;;1.10;;
10120;SDS011;5100;45.176;5.714;2023-07-13T14:58:06;1.52;;;1.27;;
10120;SDS011;5100;45.176;5.714;2023-07-13T15:00:32;1.23;;;1.10;;
10120;SDS011;5100;45.176;5.714;2023-07-13T15:02:58;1.20;;;1.08;;
10120;SDS011;5100;45.176;5.714;2023-07-13T15:05:27;1.12;;;1.05;;
10120;SDS011;5100;45.176;5.714;2023-07-13T15:07:56;1.80;;;1.20;;
10120;SDS011;5100;45.176;5.714;2023-07-13T15:10:29;1.77;;;0.90;;
10120;SDS011;5100;45.176;5.714;2023-07-13T15:13:01;1.62;;;1.40;;
10120;SDS011;5100;45.176;5.714;2023-07-13T15:15:50;1.00;;;0.90;;
10120;SDS011;5100;45.176;5.714;2023-07-13T15:18:18;2.25;;;1.25;;
10120;SDS011;5100;45.176;5.714;2023-07-13T15:20:47;10.88;;;1.42;;
10120;SDS011;5100;45.176;5.714;2023-07-13T15:23:14;1.23;;;1.12;;
10120;SDS011;5100;45.176;5.714;2023-07-13T15:25:42;1.30;;;1.20;;
10120;SDS011;5100;45.176;5.714;2023-07-13T15:28:09;2.47;;;1.00;;
10120;SDS011;5100;45.176;5.714;2023-07-13T15:30:40;0.95;;;0.80;;
10120;SDS011;5100;45.176;5.714;2023-07-13T15:33:13;0.98;;;0.98;;
10120;SDS011;5100;45.176;5.714;2023-07-13T15:35:44;2.03;;;1.00;;
10120;SDS011;5100;45.176;5.714;2023-07-13T15:38:13;3.30;;;1.15;;
10120;SDS011;5100;45.176;5.714;2023-07-13T15:40:50;0.93;;;0.93;;
10120;SDS011;5100;45.176;5.714;2023-07-13T15:43:18;1.30;;;1.20;;
10120;SDS011;5100;45.176;5.714;2023-07-13T15:45:44;1.00;;;1.00;;
10120;SDS011;5100;45.176;5.714;2023-07-13T15:48:18;0.82;;;0.82;;
10120;SDS011;5100;45.176;5.714;2023-07-13T15:50:48;0.90;;;0.90;;
10120;SDS011;5100;45.176;5.714;2023-07-13T15:53:23;1.00;;;1.00;;